Time;durP1;ratioP1;P1;durP2;ratioP2;P2;SDS_P1;SDS_P2;PMS_P1;PMS_P2;Temp;Humidity;BMP_temperature;BMP_pressure;BME280_temperature;BME280_humidity;BME280_pressure;Samples;Min_cycle;Max_cycle;Signal;HPM_P1;HPM_P2
2023/08/17 00:03:55;;;;;;;0.32;0.30;;;;;;;;;;10341959;28;20128;-85
2023/08/17 00:08:58;;;;;;;0.68;0.60;;;;;;;;;;10346230;28;20091;-86
2023/08/17 00:14:01;;;;;;;1.23;0.60;;;;;;;;;;10360778;28;20132;-86
2023/08/17 00:19:06;;;;;;;0.65;0.50;;;;;;;;;;10341493;28;20065;-87
2023/08/17 00:24:10;;;;;;;1.10;0.52;;;;;;;;;;10340698;28;20096;-85
2023/08/17 00:29:15;;;;;;;0.90;0.68;;;;;;;;;;10347698;28;20129;-85
2023/08/17 00:34:19;;;;;;;1.17;0.60;;;;;;;;;;10338645;28;20066;-85
2023/08/17 00:39:23;;;;;;;0.50;0.50;;;;;;;;;;10356490;28;20034;-85
2023/08/17 00:44:26;;;;;;;1.88;0.98;;;;;;;;;;10356284;28;20447;-84
2023/08/17 00:49:31;;;;;;;1.67;1.15;;;;;;;;;;10356366;28;20046;-84
2023/08/17 00:54:35;;;;;;;1.90;0.90;;;;;;;;;;10342786;28;20065;-85
2023/08/17 00:59:38;;;;;;;1.73;1.30;;;;;;;;;;10338818;28;20038;-86
2023/08/17 01:04:44;;;;;;;2.20;1.38;;;;;;;;;;10339374;28;20137;-85
2023/08/17 01:09:47;;;;;;;1.45;1.25;;;;;;;;;;10338095;28;20054;-85
2023/08/17 01:14:59;;;;;;;1.13;1.02;;;;;;;;;;10336851;28;20037;-85
2023/08/17 01:20:06;;;;;;;1.35;1.10;;;;;;;;;;10335866;28;20490;-85
2023/08/17 01:25:11;;;;;;;1.42;1.10;;;;;;;;;;10337802;28;20038;-85
2023/08/17 01:30:17;;;;;;;0.93;0.77;;;;;;;;;;10337871;28;20121;-86
2023/08/17 01:35:28;;;;;;;2.25;1.10;;;;;;;;;;10336895;28;20141;-86
2023/08/17 01:40:34;;;;;;;0.65;0.65;;;;;;;;;;10340669;28;20465;-84
2023/08/17 01:45:38;;;;;;;1.15;0.80;;;;;;;;;;10337778;28;20061;-85
2023/08/17 01:50:41;;;;;;;0.95;0.93;;;;;;;;;;10337223;28;20038;-85
2023/08/17 01:55:46;;;;;;;1.08;0.77;;;;;;;;;;10336743;28;20042;-85
2023/08/17 02:00:49;;;;;;;0.93;0.82;;;;;;;;;;10335765;28;20061;-85
2023/08/17 02:05:53;;;;;;;2.22;1.10;;;;;;;;;;10336577;28;20125;-85
2023/08/17 02:10:58;;;;;;;0.80;0.80;;;;;;;;;;10340945;28;20064;-86
2023/08/17 02:16:01;;;;;;;2.72;1.10;;;;;;;;;;10337020;28;20085;-86
2023/08/17 02:21:04;;;;;;;1.30;1.20;;;;;;;;;;10354267;28;20132;-86
2023/08/17 02:26:09;;;;;;;1.10;1.00;;;;;;;;;;10337831;28;20046;-84
2023/08/17 02:31:13;;;;;;;1.77;0.82;;;;;;;;;;10360014;28;20125;-85
2023/08/17 02:36:16;;;;;;;0.73;0.70;;;;;;;;;;10344300;28;20053;-86
2023/08/17 02:41:21;;;;;;;0.52;0.52;;;;;;;;;;10345755;28;20108;-85
2023/08/17 02:46:25;;;;;;;1.10;0.77;;;;;;;;;;10344426;28;20046;-86
2023/08/17 02:51:28;;;;;;;0.52;0.52;;;;;;;;;;10344683;28;20054;-86
2023/08/17 02:56:33;;;;;;;0.47;0.47;;;;;;;;;;10350095;28;20134;-86
2023/08/17 03:01:37;;;;;;;0.63;0.60;;;;;;;;;;10343703;28;20532;-85
2023/08/17 03:06:40;;;;;;;1.55;0.80;;;;;;;;;;10342369;28;20046;-85
2023/08/17 03:11:45;;;;;;;1.00;0.65;;;;;;;;;;10347299;28;20527;-86
2023/08/17 03:16:49;;;;;;;1.08;0.55;;;;;;;;;;10348978;28;20258;-86
2023/08/17 03:21:52;;;;;;;0.60;0.60;;;;;;;;;;10349546;28;20053;-86
2023/08/17 03:26:57;;;;;;;0.55;0.55;;;;;;;;;;10343897;28;20736;-87
2023/08/17 03:32:01;;;;;;;0.43;0.43;;;;;;;;;;10360148;28;20096;-86
2023/08/17 03:37:05;;;;;;;0.32;0.30;;;;;;;;;;10342837;28;20779;-85
2023/08/17 03:42:10;;;;;;;0.60;0.52;;;;;;;;;;10341796;28;20092;-85
2023/08/17 03:47:14;;;;;;;0.95;0.50;;;;;;;;;;10358304;28;20242;-85
2023/08/17 03:52:17;;;;;;;0.85;0.60;;;;;;;;;;10357797;28;20148;-85
2023/08/17 03:57:22;;;;;;;1.70;0.50;;;;;;;;;;10358244;28;20073;-86
2023/08/17 04:02:25;;;;;;;0.60;0.55;;;;;;;;;;10346062;28;20049;-86
2023/08/17 04:07:29;;;;;;;0.40;0.40;;;;;;;;;;10342776;28;20045;-85
2023/08/17 04:12:33;;;;;;;0.70;0.40;;;;;;;;;;10340892;28;20046;-86
2023/08/17 04:17:37;;;;;;;0.73;0.40;;;;;;;;;;10339355;28;20050;-85
2023/08/17 04:22:40;;;;;;;0.30;0.30;;;;;;;;;;10348394;28;20045;-85
2023/08/17 04:27:45;;;;;;;1.85;0.47;;;;;;;;;;10336754;28;20041;-84
2023/08/17 04:32:52;;;;;;;2.00;0.45;;;;;;;;;;10349531;28;20046;-84
2023/08/17 04:37:56;;;;;;;0.30;0.30;;;;;;;;;;10346074;28;20054;-86
2023/08/17 04:43:01;;;;;;;0.32;0.32;;;;;;;;;;10343400;28;20088;-86
2023/08/17 04:48:05;;;;;;;0.93;0.70;;;;;;;;;;10342922;28;20065;-86
2023/08/17 04:53:09;;;;;;;0.88;0.70;;;;;;;;;;10345881;28;20044;-86
2023/08/17 04:58:14;;;;;;;0.60;0.50;;;;;;;;;;10343089;28;20034;-86
2023/08/17 05:03:18;;;;;;;0.30;0.30;;;;;;;;;;10367558;28;20076;-86
2023/08/17 05:08:26;;;;;;;0.40;0.38;;;;;;;;;;10355457;28;20050;-86
2023/08/17 05:13:31;;;;;;;0.38;0.38;;;;;;;;;;10344727;28;20504;-85
2023/08/17 05:18:38;;;;;;;0.75;0.38;;;;;;;;;;10336635;28;20393;-86
2023/08/17 05:23:43;;;;;;;0.27;0.27;;;;;;;;;;10343846;28;20092;-86
2023/08/17 05:28:52;;;;;;;0.88;0.10;;;;;;;;;;10343759;28;20507;-85
2023/08/17 05:33:56;;;;;;;0.40;0.30;;;;;;;;;;10335229;28;20125;-86
2023/08/17 05:39:03;;;;;;;0.32;0.30;;;;;;;;;;10346428;28;20137;-85
2023/08/17 05:44:08;;;;;;;0.52;0.22;;;;;;;;;;10342975;28;20056;-85
2023/08/17 05:49:11;;;;;;;0.20;0.20;;;;;;;;;;10343628;28;20124;-86
2023/08/17 05:54:18;;;;;;;0.50;0.30;;;;;;;;;;10358043;28;20046;-85
2023/08/17 05:59:22;;;;;;;0.50;0.40;;;;;;;;;;10342804;28;20129;-85
2023/08/17 06:04:26;;;;;;;1.23;0.40;;;;;;;;;;10350720;28;20125;-86
2023/08/17 06:09:29;;;;;;;0.75;0.47;;;;;;;;;;10358259;28;20125;-85
2023/08/17 06:14:37;;;;;;;0.70;0.70;;;;;;;;;;10343594;28;20122;-85
2023/08/17 06:19:46;;;;;;;0.70;0.52;;;;;;;;;;10349187;28;20133;-86
2023/08/17 06:24:50;;;;;;;0.55;0.40;;;;;;;;;;10347636;28;20137;-86
2023/08/17 06:30:00;;;;;;;0.93;0.80;;;;;;;;;;10354365;28;20206;-85
2023/08/17 06:35:04;;;;;;;0.82;0.73;;;;;;;;;;10325787;28;20038;-85
2023/08/17 06:40:10;;;;;;;0.85;0.70;;;;;;;;;;10363342;28;20081;-86
2023/08/17 06:45:18;;;;;;;2.05;0.80;;;;;;;;;;10364058;28;20116;-86
2023/08/17 06:50:21;;;;;;;1.08;0.77;;;;;;;;;;10345447;28;20644;-85
2023/08/17 06:55:25;;;;;;;0.98;0.80;;;;;;;;;;10362031;28;20077;-86
2023/08/17 13:41:54;;;;;;;0.98;0.80;;;;;;;;;;10367513;28;20045;-89
2023/08/17 13:46:58;;;;;;;0.68;0.60;;;;;;;;;;10344917;28;20041;-89
2023/08/17 13:52:06;;;;;;;0.65;0.65;;;;;;;;;;10371008;28;20664;-89
2023/08/17 13:57:14;;;;;;;0.75;0.70;;;;;;;;;;10342327;28;20050;-89
2023/08/17 14:02:20;;;;;;;0.82;0.63;;;;;;;;;;10361772;28;20053;-90
2023/08/17 14:07:24;;;;;;;0.50;0.50;;;;;;;;;;10353135;28;20713;-90
2023/08/17 14:12:29;;;;;;;0.40;0.40;;;;;;;;;;10371398;28;20046;-90
2023/08/17 14:17:33;;;;;;;0.75;0.68;;;;;;;;;;10336427;28;20089;-90
2023/08/17 14:22:37;;;;;;;0.55;0.55;;;;;;;;;;10370399;28;20048;-89
2023/08/17 14:27:42;;;;;;;1.10;0.75;;;;;;;;;;10365737;28;20034;-89
2023/08/17 14:33:12;;;;;;;0.65;0.65;;;;;;;;;;10358916;28;20041;-89
2023/08/17 14:38:28;;;;;;;2.78;0.70;;;;;;;;;;10368325;28;20419;-88
2023/08/17 14:43:35;;;;;;;1.42;0.70;;;;;;;;;;10359713;28;20237;-88
2023/08/17 14:48:39;;;;;;;0.70;0.70;;;;;;;;;;10349179;28;20076;-89
2023/08/17 14:53:42;;;;;;;1.15;0.73;;;;;;;;;;10348690;28;20125;-88
2023/08/17 14:58:47;;;;;;;2.08;0.60;;;;;;;;;;10356255;28;20506;-88
2023/08/17 15:03:50;;;;;;;1.48;0.65;;;;;;;;;;10372015;28;20455;-87
2023/08/17 15:08:54;;;;;;;0.90;0.55;;;;;;;;;;10350703;28;20061;-87
2023/08/17 15:13:59;;;;;;;0.60;0.60;;;;;;;;;;10369250;28;20672;-87
2023/08/17 15:19:03;;;;;;;0.75;0.60;;;;;;;;;;10372964;28;20045;-87
2023/08/17 15:24:06;;;;;;;0.57;0.57;;;;;;;;;;10365936;28;20046;-87
2023/08/17 15:29:11;;;;;;;2.15;0.65;;;;;;;;;;10374020;28;20473;-87
2023/08/17 15:34:15;;;;;;;0.93;0.65;;;;;;;;;;10362765;28;20092;-87
2023/08/17 15:39:18;;;;;;;1.45;0.80;;;;;;;;;;10348467;28;20474;-88
2023/08/17 15:44:24;;;;;;;2.97;1.77;;;;;;;;;;10356607;28;20045;-88
2023/08/17 15:49:27;;;;;;;1.38;0.90;;;;;;;;;;10366372;28;20052;-87
2023/08/17 15:54:31;;;;;;;1.65;0.77;;;;;;;;;;10345276;28;20042;-87
2023/08/17 15:59:39;;;;;;;4.85;1.90;;;;;;;;;;10356823;28;20069;-87
2023/08/17 16:04:42;;;;;;;;;;;;;;;;;;10376606;28;20048;-87
2023/08/17 16:09:47;;;;;;;0.70;0.70;;;;;;;;;;10376205;28;19996;-87
2023/08/17 16:14:53;;;;;;;0.90;0.60;;;;;;;;;;10348569;28;20100;-87
2023/08/17 16:20:08;;;;;;;0.65;0.60;;;;;;;;;;10359632;28;20446;-86
2023/08/17 16:25:11;;;;;;;0.80;0.60;;;;;;;;;;10350743;28;20040;-87
2023/08/17 16:30:16;;;;;;;0.90;0.82;;;;;;;;;;10339782;28;20042;-86
2023/08/17 16:35:20;;;;;;;0.70;0.63;;;;;;;;;;10349902;28;20042;-86
2023/08/17 16:40:23;;;;;;;0.50;0.50;;;;;;;;;;10349875;28;20109;-87
2023/08/17 16:45:35;;;;;;;0.65;0.65;;;;;;;;;;10349836;28;20049;-87
2023/08/17 16:50:39;;;;;;;0.65;0.55;;;;;;;;;;10373454;28;20045;-87
2023/08/17 16:55:42;;;;;;;0.93;0.55;;;;;;;;;;10343173;28;20414;-87
2023/08/17 17:00:50;;;;;;;0.70;0.55;;;;;;;;;;10368916;28;20088;-86
2023/08/17 17:05:53;;;;;;;1.08;0.60;;;;;;;;;;10383352;28;20037;-87
2023/08/17 17:10:57;;;;;;;1.52;0.70;;;;;;;;;;10340039;28;20069;-87
2023/08/17 17:16:01;;;;;;;0.55;0.55;;;;;;;;;;10351069;28;20056;-87
2023/08/17 17:21:06;;;;;;;0.50;0.50;;;;;;;;;;10356656;28;20042;-87
2023/08/17 17:26:10;;;;;;;0.50;0.40;;;;;;;;;;10354954;28;20204;-87
2023/08/17 17:31:15;;;;;;;0.57;0.50;;;;;;;;;;10361331;28;20205;-87
2023/08/17 17:36:18;;;;;;;0.45;0.43;;;;;;;;;;10357352;28;20046;-89
2023/08/17 17:41:24;;;;;;;1.05;0.60;;;;;;;;;;10348329;28;20049;-88
2023/08/17 17:46:29;;;;;;;0.70;0.50;;;;;;;;;;10340310;28;20057;-87
2023/08/17 17:51:32;;;;;;;2.03;0.70;;;;;;;;;;10331921;28;20419;-86
2023/08/17 17:56:39;;;;;;;0.52;0.50;;;;;;;;;;10336913;28;20728;-87
2023/08/17 18:01:45;;;;;;;0.40;0.40;;;;;;;;;;10362630;28;20108;-87
2023/08/17 18:06:48;;;;;;;0.70;0.50;;;;;;;;;;10368239;28;20060;-87
2023/08/17 18:11:52;;;;;;;0.57;0.50;;;;;;;;;;10348481;28;20046;-86
2023/08/17 18:16:56;;;;;;;0.50;0.50;;;;;;;;;;10356379;28;20050;-87
2023/08/17 18:22:00;;;;;;;0.60;0.60;;;;;;;;;;10357356;28;20112;-86
2023/08/17 18:27:03;;;;;;;0.85;0.60;;;;;;;;;;10366019;28;20069;-87
2023/08/17 18:32:09;;;;;;;0.70;0.60;;;;;;;;;;10343576;28;20124;-87
2023/08/17 18:37:12;;;;;;;;;;;;;;;;;;10355841;28;20042;-86
2023/08/17 18:42:18;;;;;;;1.05;0.60;;;;;;;;;;10368459;28;20122;-87
2023/08/17 18:47:24;;;;;;;1.95;0.40;;;;;;;;;;10368797;28;20124;-87
2023/08/17 18:52:27;;;;;;;0.50;0.50;;;;;;;;;;10353283;28;20049;-87
2023/08/17 18:57:31;;;;;;;0.47;0.40;;;;;;;;;;10332447;28;20210;-87
2023/08/17 19:02:38;;;;;;;0.60;0.60;;;;;;;;;;10357309;23;20096;-85
2023/08/17 19:07:42;;;;;;;1.10;0.70;;;;;;;;;;10380242;28;20068;-85
2023/08/17 19:12:45;;;;;;;0.73;0.60;;;;;;;;;;10357359;28;20536;-86
2023/08/17 19:17:50;;;;;;;2.08;0.70;;;;;;;;;;10390175;28;20038;-86
2023/08/17 19:22:55;;;;;;;0.63;0.55;;;;;;;;;;10348100;28;20050;-85
2023/08/17 19:27:58;;;;;;;1.00;0.67;;;;;;;;;;10359339;28;20052;-86
2023/08/17 19:33:03;;;;;;;0.73;0.65;;;;;;;;;;10378422;28;20054;-85
2023/08/17 19:38:07;;;;;;;;;;;;;;;;;;10382249;28;20091;-85
2023/08/17 19:43:10;;;;;;;0.70;0.50;;;;;;;;;;10347936;28;20005;-86
2023/08/17 19:48:15;;;;;;;0.75;0.68;;;;;;;;;;10361657;28;20130;-86
2023/08/17 19:53:18;;;;;;;1.08;0.60;;;;;;;;;;10360381;28;20054;-86
2023/08/17 19:58:22;;;;;;;0.65;0.60;;;;;;;;;;10346242;28;20503;-86
2023/08/17 20:03:28;;;;;;;0.60;0.60;;;;;;;;;;10390557;28;20034;-85
2023/08/17 20:08:32;;;;;;;2.42;0.77;;;;;;;;;;10358323;28;20103;-85
2023/08/17 20:13:35;;;;;;;0.95;0.50;;;;;;;;;;10352350;28;20073;-85
2023/08/17 20:18:40;;;;;;;2.38;0.63;;;;;;;;;;10384071;28;20128;-86
2023/08/17 20:23:44;;;;;;;0.87;0.60;;;;;;;;;;10358889;28;20046;-85
2023/08/17 20:28:47;;;;;;;1.00;0.70;;;;;;;;;;10366052;28;20140;-85
2023/08/17 20:33:53;;;;;;;0.77;0.60;;;;;;;;;;10377658;28;20406;-86
2023/08/17 20:38:57;;;;;;;0.70;0.70;;;;;;;;;;10383636;28;20057;-87
2023/08/17 20:44:00;;;;;;;1.38;0.70;;;;;;;;;;10349984;28;20136;-86
2023/08/17 20:49:05;;;;;;;3.15;0.60;;;;;;;;;;10369565;28;20050;-85
2023/08/17 20:54:09;;;;;;;2.80;1.03;;;;;;;;;;10354862;28;20561;-86
2023/08/17 20:59:12;;;;;;;1.45;0.80;;;;;;;;;;10385947;28;20128;-85
2023/08/17 21:04:17;;;;;;;4.25;0.70;;;;;;;;;;10360972;28;20064;-86
2023/08/17 21:09:20;;;;;;;1.83;0.70;;;;;;;;;;10383624;28;20538;-85
2023/08/17 21:14:24;;;;;;;0.80;0.80;;;;;;;;;;10387152;28;20072;-85
2023/08/17 21:19:28;;;;;;;0.73;0.70;;;;;;;;;;10369958;28;20061;-85
2023/08/17 21:24:32;;;;;;;0.65;0.60;;;;;;;;;;10362209;28;20498;-85
2023/08/17 21:29:35;;;;;;;1.33;0.68;;;;;;;;;;10355041;28;20038;-85
2023/08/17 21:34:40;;;;;;;2.70;0.70;;;;;;;;;;10354337;28;20041;-85
2023/08/17 21:39:43;;;;;;;1.27;1.08;;;;;;;;;;10353685;28;20534;-84
2023/08/17 21:44:46;;;;;;;2.58;0.75;;;;;;;;;;10378938;28;20541;-84
2023/08/17 21:49:51;;;;;;;0.80;0.68;;;;;;;;;;10378991;28;20069;-85
2023/08/17 21:54:54;;;;;;;2.42;0.65;;;;;;;;;;10354114;28;20058;-85
2023/08/17 21:59:58;;;;;;;2.00;0.80;;;;;;;;;;10371582;28;20045;-84
2023/08/17 22:05:03;;;;;;;2.58;0.90;;;;;;;;;;10368625;28;20124;-85
2023/08/17 22:10:07;;;;;;;0.93;0.60;;;;;;;;;;10372939;28;20049;-85
2023/08/17 22:15:11;;;;;;;2.95;0.88;;;;;;;;;;10372907;28;20061;-86
2023/08/17 22:20:16;;;;;;;1.52;1.00;;;;;;;;;;10358810;28;20041;-86
2023/08/17 22:25:19;;;;;;;1.00;0.75;;;;;;;;;;10364005;28;20140;-85
2023/08/17 22:30:22;;;;;;;4.28;1.05;;;;;;;;;;10378231;28;20645;-85
2023/08/17 22:35:27;;;;;;;4.80;0.95;;;;;;;;;;10354139;28;20357;-85
2023/08/17 22:40:30;;;;;;;1.48;0.85;;;;;;;;;;10347072;28;20049;-85
2023/08/17 22:45:34;;;;;;;5.00;1.38;;;;;;;;;;10393138;28;20117;-85
2023/08/17 22:50:39;;;;;;;1.83;0.95;;;;;;;;;;10363334;28;20046;-85
2023/08/17 22:55:42;;;;;;;1.60;0.67;;;;;;;;;;10367763;28;20034;-86
2023/08/17 23:00:45;;;;;;;4.25;0.90;;;;;;;;;;10368219;28;20061;-86
2023/08/17 23:05:50;;;;;;;1.95;0.88;;;;;;;;;;10359197;28;20042;-85
2023/08/17 23:10:59;;;;;;;1.10;1.00;;;;;;;;;;10359006;28;20045;-86
2023/08/17 23:16:02;;;;;;;1.17;0.90;;;;;;;;;;10360181;28;20125;-85
2023/08/17 23:21:06;;;;;;;1.38;1.10;;;;;;;;;;10370970;28;20088;-85
2023/08/17 23:26:10;;;;;;;2.67;0.80;;;;;;;;;;10360237;28;20514;-85
2023/08/17 23:31:13;;;;;;;1.70;0.70;;;;;;;;;;10359574;28;20049;-85
2023/08/17 23:36:18;;;;;;;3.08;0.75;;;;;;;;;;10360237;28;20087;-85
2023/08/17 23:41:21;;;;;;;1.27;0.85;;;;;;;;;;10364190;28;20125;-85
2023/08/17 23:46:25;;;;;;;3.40;0.88;;;;;;;;;;10358826;28;20593;-86
2023/08/17 23:51:29;;;;;;;1.80;0.90;;;;;;;;;;10355452;28;20129;-87
2023/08/17 23:56:33;;;;;;;0.80;0.80;;;;;;;;;;10359730;28;20128;-86
